createdAt,value
2023-11-01T00:00:38.468Z,96432.19
2023-11-01T00:03:08.837Z,96440.97
2023-11-01T00:05:49.114Z,96435.56
2023-11-01T00:08:25.459Z,96434.97
2023-11-01T00:11:01.752Z,96444.19
2023-11-01T00:13:38.127Z,96451.53
2023-11-01T00:16:10.815Z,96438.97
2023-11-01T00:18:46.985Z,96435.31
2023-11-01T00:21:28.026Z,96438.59
2023-11-01T00:23:58.913Z,96432.09
2023-11-01T00:26:37.202Z,96424.97
2023-11-01T00:29:11.491Z,96429.47
2023-11-01T00:31:49.754Z,96438.31
2023-11-01T00:34:26.197Z,96438.16
2023-11-01T00:37:07.037Z,96442.09
2023-11-01T00:39:37.265Z,96454.09
2023-11-01T00:42:09.522Z,96477.19
2023-11-01T00:44:40.063Z,96493.53
2023-11-01T00:47:12.425Z,96490.09
2023-11-01T00:49:46.656Z,96506.16
2023-11-01T00:52:25.735Z,96536.50
2023-11-01T00:54:58.001Z,96553.09
2023-11-01T00:57:38.011Z,96574.00
2023-11-01T01:00:08.990Z,96579.75
2023-11-01T01:02:45.460Z,96586.63
2023-11-01T01:05:26.928Z,96587.63
2023-11-01T01:08:03.820Z,96603.94
2023-11-01T01:10:42.107Z,96618.41
2023-11-01T01:13:12.346Z,96623.50
2023-11-01T01:15:48.706Z,96624.25
2023-11-01T01:18:25.184Z,96622.81
2023-11-01T01:21:08.588Z,96620.03
2023-11-01T01:23:41.579Z,96619.72
2023-11-01T01:26:14.388Z,96632.88
2023-11-01T01:28:48.735Z,96636.06
2023-11-01T01:31:25.044Z,96647.34
2023-11-01T01:33:57.306Z,96642.44
2023-11-01T01:36:34.704Z,96660.72
2023-11-01T01:39:13.873Z,96654.19
2023-11-01T01:41:52.124Z,96667.00
2023-11-01T01:44:26.333Z,96674.41
2023-11-01T01:47:04.823Z,96676.19
2023-11-01T01:49:47.592Z,96669.63
2023-11-01T01:52:18.012Z,96674.34
2023-11-01T01:54:53.184Z,96674.25
2023-11-01T01:57:26.554Z,96681.97
2023-11-01T02:00:01.818Z,96683.75
2023-11-01T02:02:44.817Z,96696.31
2023-11-01T02:05:23.457Z,96692.66
2023-11-01T02:07:55.859Z,96689.03
2023-11-01T02:10:36.821Z,96689.97
2023-11-01T02:13:14.035Z,96687.97
2023-11-01T02:15:56.651Z,96711.28
2023-11-01T02:18:32.908Z,96719.88
2023-11-01T02:21:09.188Z,96714.38
2023-11-01T02:23:48.914Z,96708.84
2023-11-01T02:26:21.389Z,96706.63
2023-11-01T02:28:51.754Z,96719.50
2023-11-01T02:31:30.183Z,96723.25
2023-11-01T02:34:00.929Z,96727.00
2023-11-01T02:36:43.607Z,96720.44
2023-11-01T02:39:19.193Z,96716.69
2023-11-01T02:41:55.476Z,96729.34
2023-11-01T02:44:28.077Z,96730.16
2023-11-01T02:47:00.307Z,96726.16
2023-11-01T02:49:34.573Z,96727.81
2023-11-01T02:52:08.865Z,96719.97
2023-11-01T02:54:41.748Z,96714.59
2023-11-01T02:57:22.324Z,96700.53
2023-11-01T02:59:58.641Z,96706.38
2023-11-01T03:02:40.382Z,96714.31
2023-11-01T03:05:18.100Z,96727.22
2023-11-01T03:07:48.534Z,96711.50
2023-11-01T03:10:33.455Z,96720.88
2023-11-01T03:13:03.744Z,96727.56
2023-11-01T03:15:34.014Z,96727.44
2023-11-01T03:18:08.561Z,96738.66
2023-11-01T03:20:46.933Z,96743.69
2023-11-01T03:23:21.268Z,96733.59
2023-11-01T03:26:03.061Z,96736.78
2023-11-01T03:28:35.518Z,96740.75
2023-11-01T03:31:06.306Z,96746.34
2023-11-01T03:33:44.616Z,96750.91
2023-11-01T03:36:18.881Z,96751.97
2023-11-01T03:38:55.649Z,96746.81
2023-11-01T03:41:28.462Z,96740.84
2023-11-01T03:44:04.702Z,96728.19
2023-11-01T03:46:36.978Z,96718.69
2023-11-01T03:49:13.241Z,96715.44
2023-11-01T03:51:47.453Z,96718.00
2023-11-01T03:54:21.668Z,96721.94
2023-11-01T03:57:01.032Z,96722.16
2023-11-01T03:59:34.164Z,96713.47
2023-11-01T04:02:06.530Z,96712.91
2023-11-01T04:04:45.639Z,96708.56
2023-11-01T04:07:19.848Z,96695.09
2023-11-01T04:09:52.245Z,96689.72
2023-11-01T04:12:25.097Z,96686.44
2023-11-01T04:14:55.522Z,96695.34
2023-11-01T04:17:31.838Z,96703.66
2023-11-01T04:20:06.258Z,96697.22
2023-11-01T04:22:42.896Z,96701.53
2023-11-01T04:25:17.195Z,96702.38
2023-11-01T04:27:49.994Z,96702.38
2023-11-01T04:30:24.250Z,96693.25
2023-11-01T04:32:54.599Z,96686.00
2023-11-01T04:35:28.956Z,96686.00
2023-11-01T04:37:59.174Z,96688.69
2023-11-01T04:40:33.434Z,96688.69
2023-11-01T04:43:12.549Z,96696.16
2023-11-01T04:45:48.835Z,96692.88
2023-11-01T04:48:25.209Z,96687.94
2023-11-01T04:50:57.820Z,96685.72
2023-11-01T04:53:34.506Z,96690.50
2023-11-01T04:56:09.046Z,96696.34
2023-11-01T04:58:48.200Z,96688.75
2023-11-01T05:01:27.827Z,96685.44
2023-11-01T05:04:02.011Z,96699.34
2023-11-01T05:06:32.312Z,96692.34
2023-11-01T05:09:10.744Z,96676.41
2023-11-01T05:11:53.748Z,96691.75
2023-11-01T05:14:26.685Z,96691.97
2023-11-01T05:17:13.796Z,96690.09
2023-11-01T05:19:44.077Z,96694.66
2023-11-01T05:22:20.428Z,96685.75
2023-11-01T05:24:51.006Z,96678.75
2023-11-01T05:27:29.802Z,96681.66
2023-11-01T05:30:02.692Z,96676.28
2023-11-01T05:32:39.016Z,96675.50
2023-11-01T05:35:15.717Z,96665.03
2023-11-01T05:37:59.661Z,96683.31
2023-11-01T05:40:35.934Z,96677.13
2023-11-01T05:43:14.246Z,96687.03
2023-11-01T05:45:51.071Z,96686.47
2023-11-01T05:48:29.409Z,96689.16
2023-11-01T05:50:59.692Z,96690.78
2023-11-01T05:53:36.513Z,96694.88
2023-11-01T05:56:10.095Z,96700.84
2023-11-01T05:58:51.259Z,96699.00
2023-11-01T06:01:30.197Z,96700.63
2023-11-01T06:04:08.650Z,96715.97
2023-11-01T06:06:38.910Z,96719.44
2023-11-01T06:09:22.271Z,96715.75
2023-11-01T06:11:59.566Z,96733.28
2023-11-01T06:14:37.761Z,96741.94
2023-11-01T06:17:17.172Z,96746.41
2023-11-01T06:19:49.663Z,96748.19
2023-11-01T06:22:23.880Z,96746.38
2023-11-01T06:25:02.404Z,96758.75
2023-11-01T06:27:32.970Z,96753.06
2023-11-01T06:30:09.979Z,96753.22
2023-11-01T06:32:42.906Z,96761.19
2023-11-01T06:35:15.257Z,96766.72
2023-11-01T06:37:48.042Z,96760.28
2023-11-01T06:40:18.423Z,96762.19
2023-11-01T06:42:58.967Z,96764.75
2023-11-01T06:45:35.531Z,96770.56
2023-11-01T06:48:16.059Z,96758.19
2023-11-01T06:50:52.530Z,96758.03
2023-11-01T06:53:28.729Z,96764.44
2023-11-01T06:56:05.190Z,96754.81
2023-11-01T06:58:37.401Z,96751.38
2023-11-01T07:01:14.822Z,96763.16
2023-11-01T07:03:47.733Z,96758.25
2023-11-01T07:06:24.922Z,96760.47
2023-11-01T07:08:57.331Z,96757.53
2023-11-01T07:11:37.677Z,96778.06
2023-11-01T07:14:13.951Z,96774.38
2023-11-01T07:16:44.251Z,96778.31
2023-11-01T07:19:21.126Z,96780.00
2023-11-01T07:22:01.874Z,96778.69
2023-11-01T07:24:34.045Z,96779.22
2023-11-01T07:27:04.363Z,96781.69
2023-11-01T07:29:41.611Z,96782.28
2023-11-01T07:32:18.329Z,96787.44
2023-11-01T07:34:55.261Z,96786.91
2023-11-01T07:37:38.298Z,96787.53
2023-11-01T07:40:20.978Z,96788.97
2023-11-01T07:43:02.277Z,96799.84
2023-11-01T07:45:44.976Z,96800.41
2023-11-01T07:48:15.499Z,96799.38
2023-11-01T07:51:00.481Z,96800.00
2023-11-01T07:53:37.956Z,96807.09
2023-11-01T07:56:09.341Z,96803.88
2023-11-01T07:58:47.328Z,96801.97
2023-11-01T08:01:21.623Z,96809.28
2023-11-01T08:03:51.959Z,96813.59
2023-11-01T08:06:25.351Z,96800.00
2023-11-01T08:08:55.962Z,96807.56
2023-11-01T08:11:35.016Z,96808.34
2023-11-01T08:14:07.640Z,96808.59
2023-11-01T08:16:40.082Z,96818.06
2023-11-01T08:19:16.969Z,96815.28
2023-11-01T08:21:51.828Z,96818.75
2023-11-01T08:24:24.190Z,96820.59
2023-11-01T08:26:58.449Z,96816.50
2023-11-01T08:29:28.638Z,96821.91
2023-11-01T08:32:06.958Z,96820.59
2023-11-01T08:34:44.009Z,96826.25
2023-11-01T08:37:33.022Z,96825.72
2023-11-01T08:40:08.129Z,96831.97
2023-11-01T08:42:42.437Z,96831.69
2023-11-01T08:45:14.847Z,96834.97
2023-11-01T08:47:55.109Z,96837.19
2023-11-01T08:50:25.455Z,96844.78
2023-11-01T08:53:04.422Z,96848.56
2023-11-01T08:55:34.648Z,96859.16
2023-11-01T08:58:15.635Z,96854.28
2023-11-01T09:00:51.892Z,96847.88
2023-11-01T09:03:25.706Z,96845.19
2023-11-01T09:06:02.679Z,96848.16
2023-11-01T09:08:44.230Z,96854.38
2023-11-01T09:11:16.677Z,96861.09
2023-11-01T09:13:54.886Z,96866.00
2023-11-01T09:16:29.124Z,96873.13
2023-11-01T09:18:59.468Z,96866.94
2023-11-01T09:21:37.334Z,96868.59
2023-11-01T09:24:10.628Z,96860.47
2023-11-01T09:26:40.823Z,96866.69
2023-11-01T09:29:13.939Z,96857.38
2023-11-01T09:31:46.688Z,96864.06
2023-11-01T09:34:30.755Z,96854.22
2023-11-01T09:37:05.165Z,96852.56
2023-11-01T09:39:40.016Z,96864.72
2023-11-01T09:42:22.208Z,96856.00
2023-11-01T09:44:57.269Z,96854.63
2023-11-01T09:47:30.275Z,96865.16
2023-11-01T09:50:12.893Z,96856.97
2023-11-01T09:52:47.495Z,96858.06
2023-11-01T09:55:26.529Z,96857.22
2023-11-01T09:58:04.153Z,96858.06
2023-11-01T10:00:36.718Z,96857.22
2023-11-01T10:03:11.058Z,96855.34
2023-11-01T10:05:47.527Z,96850.22
2023-11-01T10:08:24.236Z,96856.19
2023-11-01T10:11:06.067Z,96846.44
2023-11-01T10:13:36.312Z,96848.84
2023-11-01T10:16:15.723Z,96852.00
2023-11-01T10:18:52.716Z,96841.81
2023-11-01T10:21:30.579Z,96844.16
2023-11-01T10:24:02.586Z,96846.81
2023-11-01T10:26:41.598Z,96852.13
2023-11-01T10:29:11.910Z,96862.41
2023-11-01T10:31:46.201Z,96867.00
2023-11-01T10:34:22.783Z,96871.25
2023-11-01T10:37:04.158Z,96875.88
2023-11-01T10:39:41.676Z,96873.16
2023-11-01T10:42:27.078Z,96878.00
2023-11-01T10:45:01.369Z,96866.03
2023-11-01T10:47:34.897Z,96870.88
2023-11-01T10:50:11.441Z,96864.63
2023-11-01T10:52:46.225Z,96866.03
2023-11-01T10:55:16.626Z,96857.19
2023-11-01T10:58:00.141Z,96862.91
2023-11-01T11:00:42.290Z,96860.19
2023-11-01T11:03:15.611Z,96855.84
2023-11-01T11:05:55.194Z,96856.94
2023-11-01T11:08:27.567Z,96848.31
2023-11-01T11:11:18.477Z,96845.66
2023-11-01T11:13:55.482Z,96839.25
2023-11-01T11:16:49.720Z,96837.63
2023-11-01T11:19:26.144Z,96846.81
2023-11-01T11:22:04.011Z,96835.41
2023-11-01T11:24:51.461Z,96833.78
2023-11-01T11:27:36.610Z,96831.38
2023-11-01T11:30:20.126Z,96834.84
2023-11-01T11:32:51.692Z,96830.41
2023-11-01T11:35:30.107Z,96833.06
2023-11-01T11:38:02.489Z,96829.81
2023-11-01T11:40:38.805Z,96829.28
2023-11-01T11:43:09.037Z,96828.53
2023-11-01T11:45:49.976Z,96835.97
2023-11-01T11:48:38.983Z,96825.78
2023-11-01T11:51:15.225Z,96819.38
2023-11-01T11:53:53.518Z,96824.09
2023-11-01T11:56:23.863Z,96825.56
2023-11-01T11:58:58.176Z,96819.94
2023-11-01T12:01:31.895Z,96816.19
2023-11-01T12:04:09.224Z,96819.78
2023-11-01T12:06:43.988Z,96817.69
2023-11-01T12:09:19.318Z,96821.06
2023-11-01T12:11:56.324Z,96826.38
2023-11-01T12:14:34.219Z,96817.88
2023-11-01T12:17:13.009Z,96823.19
2023-11-01T12:19:50.565Z,96821.66
2023-11-01T12:22:28.885Z,96817.09
2023-11-01T12:25:12.075Z,96813.78
2023-11-01T12:27:50.066Z,96814.84
2023-11-01T12:30:24.842Z,96811.00
2023-11-01T12:33:01.810Z,96812.25
2023-11-01T12:35:32.111Z,96822.97
2023-11-01T12:38:18.082Z,96822.84
2023-11-01T12:40:56.804Z,96829.78
2023-11-01T12:43:31.481Z,96820.13
2023-11-01T12:46:05.782Z,96824.06
2023-11-01T12:48:44.734Z,96826.66
2023-11-01T12:51:15.221Z,96827.63
2023-11-01T12:53:47.497Z,96830.19
2023-11-01T12:56:18.805Z,96817.09
2023-11-01T12:58:57.001Z,96819.75
2023-11-01T13:01:29.183Z,96811.53
2023-11-01T13:04:06.174Z,96819.59
2023-11-01T13:06:44.421Z,96820.59
2023-11-01T13:09:18.649Z,96809.66
2023-11-01T13:11:52.933Z,96816.28
2023-11-01T13:14:27.223Z,96810.75
2023-11-01T13:17:03.920Z,96801.97
2023-11-01T13:19:41.116Z,96803.81
2023-11-01T13:22:11.327Z,96809.16
2023-11-01T13:24:47.603Z,96801.53
2023-11-01T13:27:19.888Z,96799.31
2023-11-01T13:29:58.146Z,96797.06
2023-11-01T13:32:34.013Z,96804.59
2023-11-01T13:35:13.059Z,96794.88
2023-11-01T13:37:53.354Z,96799.69
2023-11-01T13:40:29.610Z,96807.00
2023-11-01T13:43:00.318Z,96805.59
2023-11-01T13:45:30.566Z,96805.03
2023-11-01T13:48:00.793Z,96797.38
2023-11-01T13:50:33.779Z,96798.69
2023-11-01T13:53:04.010Z,96796.28
2023-11-01T13:55:44.255Z,96791.91
2023-11-01T13:58:27.425Z,96795.13
2023-11-01T14:01:04.342Z,96797.25
2023-11-01T14:03:38.103Z,96793.38
2023-11-01T14:06:23.247Z,96800.34
2023-11-01T14:09:05.366Z,96797.56
2023-11-01T14:11:37.789Z,96796.66
2023-11-01T14:14:11.972Z,96806.06
2023-11-01T14:16:48.233Z,96802.81
2023-11-01T14:19:19.314Z,96788.47
2023-11-01T14:21:54.155Z,96797.88
2023-11-01T14:24:35.066Z,96794.63
2023-11-01T14:27:06.194Z,96798.38
2023-11-01T14:29:36.453Z,96788.84
2023-11-01T14:32:12.770Z,96791.84
2023-11-01T14:34:53.913Z,96795.00
2023-11-01T14:37:28.742Z,96792.78
2023-11-01T14:40:01.488Z,96799.50
2023-11-01T14:42:33.796Z,96798.34
2023-11-01T14:45:04.485Z,96807.75
2023-11-01T14:47:37.621Z,96805.53
2023-11-01T14:50:10.818Z,96801.44
2023-11-01T14:52:45.657Z,96802.72
2023-11-01T14:55:16.781Z,96804.28
2023-11-01T14:57:51.254Z,96809.59
2023-11-01T15:00:30.646Z,96808.44
2023-11-01T15:03:01.314Z,96802.91
2023-11-01T15:05:36.071Z,96797.41
2023-11-01T15:08:11.430Z,96801.66
2023-11-01T15:10:47.656Z,96796.16
2023-11-01T15:13:19.871Z,96796.06
2023-11-01T15:15:54.184Z,96799.69
2023-11-01T15:18:24.601Z,96796.31
2023-11-01T15:21:00.969Z,96798.94
2023-11-01T15:23:35.533Z,96800.94
2023-11-01T15:26:15.976Z,96807.00
2023-11-01T15:28:50.296Z,96805.28
2023-11-01T15:31:27.382Z,96798.94
2023-11-01T15:33:59.430Z,96806.94
2023-11-01T15:36:36.320Z,96803.78
2023-11-01T15:39:09.362Z,96820.88
2023-11-01T15:41:47.519Z,96821.00
2023-11-01T15:44:18.889Z,96820.31
2023-11-01T15:46:51.180Z,96815.81
2023-11-01T15:49:21.772Z,96815.13
2023-11-01T15:51:56.650Z,96817.94
2023-11-01T15:54:36.295Z,96820.97
2023-11-01T15:57:07.393Z,96823.75
2023-11-01T15:59:41.654Z,96827.34
2023-11-01T16:02:16.262Z,96829.34
2023-11-01T16:04:46.723Z,96834.63
2023-11-01T16:07:21.492Z,96844.66
2023-11-01T16:10:00.336Z,96846.38
2023-11-01T16:12:38.606Z,96851.63
2023-11-01T16:15:09.516Z,96850.66
2023-11-01T16:17:47.126Z,96841.88
2023-11-01T16:20:18.441Z,96854.38
2023-11-01T16:22:50.693Z,96855.03
2023-11-01T16:25:28.676Z,96857.81
2023-11-01T16:28:06.011Z,96860.84
2023-11-01T16:30:36.546Z,96868.97
2023-11-01T16:33:10.981Z,96863.44
2023-11-01T16:35:41.348Z,96855.81
2023-11-01T16:38:17.695Z,96863.13
2023-11-01T16:40:50.548Z,96858.03
2023-11-01T16:43:21.022Z,96866.19
2023-11-01T16:45:53.267Z,96874.31
2023-11-01T16:48:23.727Z,96877.91
2023-11-01T16:50:54.181Z,96884.19
2023-11-01T16:53:24.467Z,96882.34
2023-11-01T16:55:57.304Z,96886.75
2023-11-01T16:58:29.571Z,96892.78
2023-11-01T17:00:59.948Z,96888.53
2023-11-01T17:03:30.308Z,96891.84
2023-11-01T17:06:04.132Z,96898.91
2023-11-01T17:08:35.088Z,96900.66
2023-11-01T17:11:08.091Z,96909.34
2023-11-01T17:13:38.303Z,96909.38
2023-11-01T17:16:12.116Z,96912.97
2023-11-01T17:18:42.645Z,96913.97
2023-11-01T17:21:13.671Z,96911.59
2023-11-01T17:23:46.952Z,96914.91
2023-11-01T17:26:29.700Z,96922.78
2023-11-01T17:29:01.275Z,96920.72
2023-11-01T17:31:40.822Z,96925.91
2023-11-01T17:34:11.433Z,96927.38
2023-11-01T17:36:41.804Z,96934.47
2023-11-01T17:39:12.112Z,96943.97
2023-11-01T17:42:02.398Z,96934.47
2023-11-01T17:44:37.028Z,96941.53
2023-11-01T17:47:08.887Z,96942.34
2023-11-01T17:49:52.808Z,96939.47
2023-11-01T17:52:26.994Z,96941.16
2023-11-01T17:54:57.548Z,96944.47
2023-11-01T17:57:33.947Z,96939.72
2023-11-01T18:00:10.271Z,96932.34
2023-11-01T18:02:55.690Z,96936.69
2023-11-01T18:05:35.768Z,96930.28
2023-11-01T18:08:13.759Z,96940.63
2023-11-01T18:10:46.673Z,96939.59
2023-11-01T18:13:20.841Z,96951.75
2023-11-01T18:15:55.471Z,96945.81
2023-11-01T18:18:34.908Z,96944.97
2023-11-01T18:21:12.131Z,96953.00
2023-11-01T18:23:43.122Z,96950.31
2023-11-01T18:26:17.739Z,96952.78
2023-11-01T18:28:48.701Z,96955.28
2023-11-01T18:31:22.700Z,96948.88
2023-11-01T18:33:53.934Z,96942.47
2023-11-01T18:36:24.333Z,96944.16
2023-11-01T18:38:58.411Z,96937.75
2023-11-01T18:41:33.204Z,96948.47
2023-11-01T18:44:04.855Z,96940.81
2023-11-01T18:46:39.123Z,96941.25
2023-11-01T18:49:09.427Z,96939.16
2023-11-01T18:51:43.889Z,96936.88
2023-11-01T18:54:14.192Z,96932.16
2023-11-01T18:56:44.796Z,96930.91
2023-11-01T18:59:16.399Z,96934.00
2023-11-01T19:01:49.269Z,96931.09
2023-11-01T19:04:23.727Z,96931.69
2023-11-01T19:06:54.113Z,96927.56
2023-11-01T19:09:25.181Z,96933.34
2023-11-01T19:11:56.962Z,96932.09
2023-11-01T19:14:27.303Z,96934.97
2023-11-01T19:17:00.516Z,96934.56
2023-11-01T19:19:30.803Z,96927.97
2023-11-01T19:22:02.471Z,96924.66
2023-11-01T19:24:32.808Z,96920.91
2023-11-01T19:27:09.826Z,96914.72
2023-11-01T19:29:46.983Z,96910.16
2023-11-01T19:32:19.948Z,96910.78
2023-11-01T19:34:50.171Z,96918.59
2023-11-01T19:37:20.584Z,96909.31
2023-11-01T19:39:51.215Z,96902.66
2023-11-01T19:42:21.436Z,96907.81
2023-11-01T19:44:51.799Z,96897.69
2023-11-01T19:47:24.841Z,96889.06
2023-11-01T19:49:55.200Z,96890.47
2023-11-01T19:52:25.977Z,96899.91
2023-11-01T19:54:56.342Z,96899.69
2023-11-01T19:57:26.564Z,96883.59
2023-11-01T19:59:56.832Z,96886.44
2023-11-01T20:02:40.222Z,96886.00
2023-11-01T20:05:11.260Z,96897.09
2023-11-01T20:07:41.884Z,96894.00
2023-11-01T20:10:12.740Z,96885.53
2023-11-01T20:12:43.238Z,96886.75
2023-11-01T20:15:15.130Z,96890.44
2023-11-01T20:17:48.770Z,96889.81
2023-11-01T20:20:19.322Z,96871.50
2023-11-01T20:22:50.318Z,96874.56
2023-11-01T20:25:20.640Z,96879.47
2023-11-01T20:27:52.653Z,96875.53
2023-11-01T20:30:23.416Z,96869.78
2023-11-01T20:32:56.540Z,96867.47
2023-11-01T20:35:26.864Z,96865.19
2023-11-01T20:37:57.198Z,96862.94
2023-11-01T20:40:27.470Z,96848.94
2023-11-01T20:42:57.791Z,96847.47
2023-11-01T20:45:28.644Z,96847.66
2023-11-01T20:48:01.694Z,96843.34
2023-11-01T20:50:32.526Z,96834.50
2023-11-01T20:53:02.809Z,96834.91
2023-11-01T20:55:33.064Z,96836.94
2023-11-01T20:58:07.690Z,96837.13
2023-11-01T21:00:38.043Z,96827.84
2023-11-01T21:03:11.068Z,96825.59
2023-11-01T21:05:42.159Z,96826.81
2023-11-01T21:08:12.434Z,96833.38
2023-11-01T21:10:42.881Z,96832.91
2023-11-01T21:13:13.311Z,96822.63
2023-11-01T21:15:43.567Z,96824.66
2023-11-01T21:18:16.467Z,96826.72
2023-11-01T21:20:46.821Z,96828.72
2023-11-01T21:23:17.226Z,96828.31
2023-11-01T21:25:47.392Z,96820.47
2023-11-01T21:28:17.688Z,96809.81
2023-11-01T21:30:48.067Z,96816.34
2023-11-01T21:33:22.705Z,96809.38
2023-11-01T21:35:53.121Z,96815.09
2023-11-01T21:38:23.485Z,96808.91
2023-11-01T21:40:53.777Z,96818.78
2023-11-01T21:43:26.078Z,96807.69
2023-11-01T21:45:57.007Z,96807.88
2023-11-01T21:48:31.720Z,96802.72
2023-11-01T21:51:03.631Z,96804.56
2023-11-01T21:53:37.146Z,96790.59
2023-11-01T21:56:07.729Z,96794.28
2023-11-01T21:58:39.076Z,96794.66
2023-11-01T22:01:10.806Z,96788.88
2023-11-01T22:03:48.592Z,96785.72
2023-11-01T22:06:22.266Z,96777.91
2023-11-01T22:09:00.628Z,96772.56
2023-11-01T22:11:32.115Z,96774.25
2023-11-01T22:14:03.292Z,96763.59
2023-11-01T22:16:34.770Z,96761.09
2023-11-01T22:19:09.034Z,96762.75
2023-11-01T22:21:39.840Z,96764.78
2023-11-01T22:24:11.147Z,96772.16
2023-11-01T22:26:41.545Z,96770.50
2023-11-01T22:29:12.451Z,96769.66
2023-11-01T22:31:46.743Z,96758.19
2023-11-01T22:34:19.637Z,96747.53
2023-11-01T22:36:50.404Z,96753.66
2023-11-01T22:39:29.361Z,96758.19
2023-11-01T22:42:00.363Z,96761.84
2023-11-01T22:44:30.686Z,96751.19
2023-11-01T22:47:00.865Z,96745.84
2023-11-01T22:49:33.735Z,96739.06
2023-11-01T22:52:04.699Z,96735.59
2023-11-01T22:54:35.034Z,96756.09
2023-11-01T22:57:05.385Z,96734.94
2023-11-01T22:59:37.761Z,96731.47
2023-11-01T23:02:09.386Z,96723.66
2023-11-01T23:04:43.538Z,96731.00
2023-11-01T23:07:15.827Z,96732.03
2023-11-01T23:09:46.091Z,96736.75
2023-11-01T23:12:16.369Z,96735.06
2023-11-01T23:14:47.801Z,96734.25
2023-11-01T23:17:18.009Z,96734.44
2023-11-01T23:19:51.688Z,96723.97
2023-11-01T23:22:24.490Z,96718.63
2023-11-01T23:24:54.752Z,96719.47
2023-11-01T23:27:25.497Z,96725.44
2023-11-01T23:29:55.937Z,96728.09
2023-11-01T23:32:26.423Z,96727.72
2023-11-01T23:34:59.424Z,96718.06
2023-11-01T23:37:35.650Z,96717.06
2023-11-01T23:40:06.556Z,96708.03
2023-11-01T23:42:37.432Z,96705.19
2023-11-01T23:45:28.434Z,96706.00
2023-11-01T23:48:01.885Z,96711.34
2023-11-01T23:50:42.698Z,96702.31
2023-11-01T23:53:16.700Z,96697.00
2023-11-01T23:55:49.606Z,96698.81
2023-11-01T23:58:22.371Z,96698.00
